createdAt,value
2019-01-25T00:00:21.644Z,71.03
2019-01-25T00:03:25.063Z,73.37
2019-01-25T00:06:28.528Z,85.30
2019-01-25T00:09:31.952Z,86.73
2019-01-25T00:12:35.417Z,83.67
2019-01-25T00:15:38.839Z,81.33
2019-01-25T00:18:42.293Z,76.97
2019-01-25T00:21:45.796Z,75.50
2019-01-25T00:24:49.245Z,70.50
2019-01-25T00:27:52.688Z,75.03
2019-01-25T00:30:56.123Z,71.10
2019-01-25T00:33:59.552Z,76.43
2019-01-25T00:37:02.979Z,77.30
2019-01-25T00:40:12.452Z,73.20
2019-01-25T00:43:15.893Z,76.57
2019-01-25T00:46:19.344Z,81.10
2019-01-25T00:49:22.765Z,80.87
2019-01-25T00:52:26.212Z,75.53
2019-01-25T00:55:29.645Z,73.37
2019-01-25T00:58:33.081Z,71.53
2019-01-25T01:01:36.593Z,86.47
2019-01-25T01:04:40.048Z,82.37
2019-01-25T01:07:43.804Z,86.57
2019-01-25T01:10:47.257Z,86.13
2019-01-25T01:13:50.695Z,90.57
2019-01-25T01:16:54.152Z,76.67
2019-01-25T01:19:57.616Z,79.23
2019-01-25T01:23:01.125Z,71.27
2019-01-25T01:26:04.624Z,77.90
2019-01-25T01:29:08.062Z,80.30
2019-01-25T01:32:11.521Z,79.13
2019-01-25T01:35:14.944Z,86.40
2019-01-25T01:38:18.389Z,78.57
2019-01-25T01:41:21.825Z,79.93
2019-01-25T01:44:25.264Z,82.23
2019-01-25T01:47:28.695Z,80.77
2019-01-25T01:50:32.149Z,79.60
2019-01-25T01:53:35.574Z,77.90
2019-01-25T01:56:39.021Z,76.13
2019-01-25T01:59:42.445Z,75.07
2019-01-25T02:02:46.049Z,79.70
2019-01-25T02:05:49.472Z,69.90
2019-01-25T02:08:52.915Z,73.90
2019-01-25T02:11:56.349Z,74.03
2019-01-25T02:14:59.792Z,70.00
2019-01-25T02:18:03.223Z,78.47
2019-01-25T02:21:07.344Z,79.30
2019-01-25T02:24:10.759Z,71.00
2019-01-25T02:27:14.206Z,76.73
2019-01-25T02:30:22.526Z,87.03
2019-01-25T02:33:25.949Z,68.77
2019-01-25T02:36:29.397Z,77.00
2019-01-25T02:39:32.817Z,77.60
2019-01-25T02:42:36.270Z,72.30
2019-01-25T02:45:39.714Z,70.83
2019-01-25T02:48:43.129Z,77.07
2019-01-25T02:51:46.565Z,72.23
2019-01-25T02:54:50.024Z,72.97
2019-01-25T02:57:53.461Z,72.80
2019-01-25T03:00:56.908Z,76.10
2019-01-25T03:04:00.474Z,74.00
2019-01-25T03:07:04.172Z,74.60
2019-01-25T03:10:13.240Z,72.93
2019-01-25T03:13:16.821Z,75.53
2019-01-25T03:16:20.270Z,77.80
2019-01-25T03:19:25.274Z,70.10
2019-01-25T03:22:28.728Z,80.07
2019-01-25T03:25:32.243Z,77.47
2019-01-25T03:28:35.676Z,79.27
2019-01-25T03:31:39.103Z,72.17
2019-01-25T03:34:42.558Z,75.77
2019-01-25T03:37:46.124Z,73.50
2019-01-25T03:40:54.962Z,76.50
2019-01-25T03:43:54.835Z,79.73
2019-01-25T03:46:58.285Z,73.70
2019-01-25T03:50:01.736Z,75.40
2019-01-25T03:53:05.187Z,77.20
2019-01-25T03:56:08.631Z,67.47
2019-01-25T03:59:12.060Z,75.30
2019-01-25T04:02:15.516Z,77.73
2019-01-25T04:05:19.149Z,73.03
2019-01-25T04:08:22.569Z,73.37
2019-01-25T04:11:26.031Z,80.37
2019-01-25T04:14:29.461Z,72.33
2019-01-25T04:17:32.906Z,73.17
2019-01-25T04:20:36.357Z,77.07
2019-01-25T04:23:39.789Z,83.10
2019-01-25T04:26:43.245Z,77.93
2019-01-25T04:29:46.680Z,76.67
2019-01-25T04:32:50.205Z,72.37
2019-01-25T04:35:53.667Z,70.57
2019-01-25T04:38:57.125Z,76.53
2019-01-25T04:42:00.550Z,71.80
2019-01-25T04:45:06.354Z,72.73
2019-01-25T04:48:12.875Z,70.80
2019-01-25T04:51:16.314Z,62.43
2019-01-25T04:54:19.841Z,68.80
2019-01-25T04:57:23.264Z,68.67
2019-01-25T05:00:26.722Z,73.20
2019-01-25T05:03:30.165Z,67.10
2019-01-25T05:06:33.641Z,66.20
2019-01-25T05:09:38.201Z,65.47
2019-01-25T05:12:41.663Z,68.00
2019-01-25T05:15:45.098Z,74.63
2019-01-25T05:18:48.557Z,71.30
2019-01-25T05:21:52.010Z,64.10
2019-01-25T05:24:55.433Z,62.00
2019-01-25T05:28:07.469Z,71.00
2019-01-25T05:31:10.893Z,64.67
2019-01-25T05:34:14.345Z,59.97
2019-01-25T05:37:17.769Z,64.37
2019-01-25T05:40:25.916Z,59.43
2019-01-25T05:43:34.338Z,65.70
2019-01-25T05:46:37.787Z,65.00
2019-01-25T05:49:41.238Z,58.07
2019-01-25T05:52:44.680Z,62.63
2019-01-25T05:55:48.128Z,63.30
2019-01-25T05:58:51.672Z,63.60
2019-01-25T06:01:55.127Z,60.50
2019-01-25T06:04:58.552Z,64.90
2019-01-25T06:08:02.000Z,66.13
2019-01-25T06:11:06.623Z,59.23
2019-01-25T06:14:13.182Z,65.73
2019-01-25T06:17:16.640Z,62.20
2019-01-25T06:20:20.134Z,61.10
2019-01-25T06:23:23.699Z,66.67
2019-01-25T06:26:27.215Z,56.27
2019-01-25T06:29:31.526Z,60.93
2019-01-25T06:32:34.951Z,64.10
2019-01-25T06:35:38.417Z,69.00
2019-01-25T06:38:41.875Z,57.13
2019-01-25T06:41:45.321Z,59.27
2019-01-25T06:44:48.748Z,62.87
2019-01-25T06:47:52.197Z,64.97
2019-01-25T06:50:55.629Z,55.67
2019-01-25T06:53:59.072Z,62.73
2019-01-25T06:57:04.174Z,57.80
2019-01-25T07:00:13.738Z,56.23
2019-01-25T07:03:17.188Z,55.73
2019-01-25T07:06:20.673Z,69.20
2019-01-25T07:09:24.105Z,63.27
2019-01-25T07:12:27.571Z,62.97
2019-01-25T07:15:30.994Z,64.73
2019-01-25T07:18:34.504Z,58.33
2019-01-25T07:21:37.980Z,66.13
2019-01-25T07:24:41.405Z,63.10
2019-01-25T07:27:44.828Z,63.60
2019-01-25T07:30:48.348Z,64.17
2019-01-25T07:33:51.812Z,64.67
2019-01-25T07:36:55.309Z,60.77
2019-01-25T07:39:58.921Z,55.27
2019-01-25T07:43:02.419Z,60.70
2019-01-25T07:46:06.028Z,58.93
2019-01-25T07:49:09.461Z,53.37
2019-01-25T07:52:12.988Z,63.00
2019-01-25T07:55:16.513Z,57.70
2019-01-25T07:58:20.001Z,58.97
2019-01-25T08:01:23.462Z,61.20
2019-01-25T08:04:26.906Z,60.80
2019-01-25T08:07:30.353Z,60.83
2019-01-25T08:10:33.789Z,61.27
2019-01-25T08:13:37.330Z,65.57
2019-01-25T08:16:40.837Z,60.53
2019-01-25T08:19:44.288Z,69.30
2019-01-25T08:22:47.835Z,58.23
2019-01-25T08:25:51.437Z,68.17
2019-01-25T08:28:54.912Z,66.03
2019-01-25T08:31:58.358Z,59.00
2019-01-25T08:35:01.836Z,60.70
2019-01-25T08:38:06.587Z,59.10
2019-01-25T08:41:10.210Z,54.97
2019-01-25T08:44:13.687Z,55.93
2019-01-25T08:47:17.149Z,57.63
2019-01-25T08:50:23.002Z,56.07
2019-01-25T08:53:26.448Z,58.27
2019-01-25T08:56:29.915Z,55.67
2019-01-25T08:59:33.413Z,53.57
2019-01-25T09:02:36.870Z,54.93
2019-01-25T09:05:40.288Z,51.57
2019-01-25T09:08:43.743Z,51.90
2019-01-25T09:11:47.175Z,50.13
2019-01-25T09:14:50.613Z,52.37
2019-01-25T09:17:54.077Z,54.23
2019-01-25T09:20:57.517Z,52.17
2019-01-25T09:24:00.966Z,54.10
2019-01-25T09:27:04.388Z,55.63
2019-01-25T09:30:16.572Z,50.70
2019-01-25T09:33:20.023Z,51.60
2019-01-25T09:36:23.462Z,46.83
2019-01-25T09:39:26.912Z,49.03
2019-01-25T09:42:31.203Z,51.07
2019-01-25T09:45:34.856Z,45.83
2019-01-25T09:48:38.305Z,48.37
2019-01-25T09:51:41.760Z,49.77
2019-01-25T09:54:45.217Z,43.63
2019-01-25T09:57:48.645Z,44.70
2019-01-25T10:01:01.129Z,40.63
2019-01-25T10:04:04.858Z,36.60
2019-01-25T10:07:08.282Z,41.03
2019-01-25T10:10:12.084Z,42.97
2019-01-25T10:13:15.506Z,42.20
2019-01-25T10:16:18.940Z,43.90
2019-01-25T10:19:22.384Z,40.13
2019-01-25T10:22:25.812Z,40.07
2019-01-25T10:25:29.249Z,41.20
2019-01-25T10:28:32.705Z,34.73
2019-01-25T10:31:36.249Z,35.77
2019-01-25T10:34:39.669Z,36.57
2019-01-25T10:37:43.257Z,36.00
2019-01-25T10:40:47.068Z,42.57
2019-01-25T10:43:50.689Z,35.07
2019-01-25T10:46:54.163Z,33.50
2019-01-25T10:49:59.199Z,34.47
2019-01-25T10:53:02.759Z,35.47
2019-01-25T10:56:06.181Z,35.47
2019-01-25T10:59:09.649Z,34.37
2019-01-25T11:02:13.117Z,29.60
2019-01-25T11:05:19.345Z,31.83
2019-01-25T11:08:22.781Z,35.43
2019-01-25T11:11:26.220Z,34.43
2019-01-25T11:14:29.666Z,30.93
2019-01-25T11:17:36.590Z,33.23
2019-01-25T11:20:38.296Z,30.87
2019-01-25T11:23:41.723Z,29.57
2019-01-25T11:26:45.245Z,34.93
2019-01-25T11:29:48.683Z,30.20
2019-01-25T11:32:52.118Z,34.43
2019-01-25T11:35:55.540Z,35.00
2019-01-25T11:38:58.977Z,37.33
2019-01-25T11:42:02.401Z,32.93
2019-01-25T11:45:08.908Z,37.07
2019-01-25T11:48:13.378Z,29.17
2019-01-25T11:51:16.806Z,34.70
2019-01-25T11:54:20.254Z,33.20
2019-01-25T11:57:23.680Z,35.30
2019-01-25T12:00:28.770Z,26.57
2019-01-25T12:03:32.181Z,34.90
2019-01-25T12:06:35.622Z,33.70
2019-01-25T12:09:39.044Z,34.40
2019-01-25T12:12:42.481Z,31.90
2019-01-25T12:15:45.901Z,31.33
2019-01-25T12:18:49.336Z,34.83
2019-01-25T12:21:52.780Z,32.40
2019-01-25T12:24:56.197Z,31.00
2019-01-25T12:27:59.641Z,32.43
2019-01-25T12:31:03.068Z,29.73
2019-01-25T12:34:06.516Z,29.17
2019-01-25T12:37:09.934Z,33.83
2019-01-25T12:40:17.994Z,31.53
2019-01-25T12:43:24.187Z,29.27
2019-01-25T12:46:26.662Z,30.90
2019-01-25T12:49:30.089Z,32.77
2019-01-25T12:52:33.512Z,33.70
2019-01-25T12:55:36.968Z,30.43
2019-01-25T12:58:40.409Z,32.77
2019-01-25T13:01:43.829Z,30.70
2019-01-25T13:04:47.341Z,31.17
2019-01-25T13:07:50.892Z,31.90
2019-01-25T13:10:54.413Z,30.20
2019-01-25T13:13:57.857Z,33.37
2019-01-25T13:17:01.317Z,32.20
2019-01-25T13:20:07.817Z,32.80
2019-01-25T13:23:11.271Z,33.20
2019-01-25T13:26:14.688Z,37.47
2019-01-25T13:29:18.145Z,36.03
2019-01-25T13:32:21.677Z,32.83
2019-01-25T13:35:25.126Z,33.10
2019-01-25T13:38:31.445Z,35.90
2019-01-25T13:41:34.900Z,38.50
2019-01-25T13:44:38.349Z,35.00
2019-01-25T13:47:41.940Z,35.50
2019-01-25T13:50:45.373Z,35.00
2019-01-25T13:53:48.824Z,35.37
2019-01-25T13:56:52.278Z,39.63
2019-01-25T13:59:57.239Z,32.57
2019-01-25T14:03:00.796Z,31.23
2019-01-25T14:06:04.417Z,35.57
2019-01-25T14:09:08.717Z,38.70
2019-01-25T14:12:12.173Z,37.37
2019-01-25T14:15:16.732Z,36.77
2019-01-25T14:18:20.186Z,35.00
2019-01-25T14:21:23.649Z,33.87
2019-01-25T14:24:27.096Z,32.07
2019-01-25T14:27:30.516Z,30.93
2019-01-25T14:30:36.860Z,33.50
2019-01-25T14:33:40.305Z,34.27
2019-01-25T14:36:43.745Z,34.07
2019-01-25T14:39:47.185Z,32.63
2019-01-25T14:42:50.709Z,34.20
2019-01-25T14:45:54.141Z,33.33
2019-01-25T14:48:59.957Z,39.50
2019-01-25T14:52:04.072Z,32.80
2019-01-25T14:55:07.869Z,33.77
2019-01-25T14:58:11.365Z,38.17
2019-01-25T15:01:17.637Z,34.33
2019-01-25T15:04:21.066Z,28.47
2019-01-25T15:07:24.508Z,39.37
2019-01-25T15:10:27.941Z,31.07
2019-01-25T15:13:31.385Z,31.60
2019-01-25T15:16:34.825Z,28.97
2019-01-25T15:19:38.244Z,30.83
2019-01-25T15:22:41.764Z,32.73
2019-01-25T15:25:45.251Z,28.47
2019-01-25T15:28:48.734Z,28.17
2019-01-25T15:31:52.171Z,30.03
2019-01-25T15:34:55.632Z,27.10
2019-01-25T15:37:59.059Z,32.87
2019-01-25T15:41:02.562Z,30.47
2019-01-25T15:44:10.076Z,28.53
2019-01-25T15:47:11.165Z,31.33
2019-01-25T15:50:20.747Z,27.90
2019-01-25T15:53:24.296Z,29.00
2019-01-25T15:56:27.710Z,28.27
2019-01-25T15:59:31.157Z,25.97
2019-01-25T16:02:34.593Z,30.90
2019-01-25T16:05:38.040Z,26.10
2019-01-25T16:08:41.462Z,24.20
2019-01-25T16:11:44.921Z,28.87
2019-01-25T16:14:48.345Z,29.27
2019-01-25T16:17:52.019Z,25.27
2019-01-25T16:20:55.437Z,28.43
2019-01-25T16:23:58.884Z,28.20
2019-01-25T16:27:02.377Z,27.83
2019-01-25T16:30:08.914Z,29.53
2019-01-25T16:33:12.331Z,27.53
2019-01-25T16:36:15.787Z,25.00
2019-01-25T16:39:19.254Z,24.50
2019-01-25T16:42:22.682Z,25.67
2019-01-25T16:45:28.880Z,23.83
2019-01-25T16:48:32.309Z,26.50
2019-01-25T16:51:35.759Z,27.03
2019-01-25T16:54:39.222Z,21.03
2019-01-25T16:57:42.644Z,26.07
2019-01-25T17:00:46.089Z,27.00
2019-01-25T17:03:49.549Z,22.87
2019-01-25T17:06:53.025Z,22.17
2019-01-25T17:09:56.487Z,29.60
2019-01-25T17:12:59.909Z,24.83
2019-01-25T17:16:03.372Z,25.33
2019-01-25T17:19:06.798Z,24.30
2019-01-25T17:22:10.265Z,26.10
2019-01-25T17:25:14.718Z,26.97
2019-01-25T17:28:18.173Z,23.17
2019-01-25T17:31:21.592Z,28.23
2019-01-25T17:34:25.104Z,24.23
2019-01-25T17:37:28.546Z,26.50
2019-01-25T17:40:34.800Z,27.67
2019-01-25T17:43:38.226Z,25.27
2019-01-25T17:46:41.668Z,29.23
2019-01-25T17:49:45.088Z,28.33
2019-01-25T17:52:48.531Z,28.00
2019-01-25T17:55:51.973Z,27.57
2019-01-25T17:58:55.389Z,33.10
2019-01-25T18:01:58.838Z,38.00
2019-01-25T18:05:02.261Z,31.00
2019-01-25T18:08:05.720Z,29.07
2019-01-25T18:11:09.146Z,29.07
2019-01-25T18:14:12.597Z,30.97
2019-01-25T18:17:16.020Z,26.13
2019-01-25T18:20:21.400Z,30.47
2019-01-25T18:23:25.705Z,31.70
2019-01-25T18:26:29.150Z,37.73
2019-01-25T18:29:32.725Z,33.27
2019-01-25T18:32:36.176Z,34.13
2019-01-25T18:35:39.605Z,36.80
2019-01-25T18:38:43.051Z,36.53
2019-01-25T18:41:46.468Z,35.53
2019-01-25T18:44:56.552Z,35.00
2019-01-25T18:47:55.072Z,34.80
2019-01-25T18:50:58.509Z,36.67
2019-01-25T18:54:01.965Z,41.83
2019-01-25T18:57:05.391Z,45.23
2019-01-25T19:00:11.925Z,43.03
2019-01-25T19:03:18.256Z,44.03
2019-01-25T19:06:21.709Z,49.67
2019-01-25T19:09:25.134Z,47.57
2019-01-25T19:12:28.600Z,47.43
2019-01-25T19:15:32.764Z,43.70
2019-01-25T19:18:36.209Z,54.07
2019-01-25T19:21:39.627Z,53.30
2019-01-25T19:24:43.086Z,55.30
2019-01-25T19:27:46.509Z,51.77
2019-01-25T19:30:49.978Z,55.10
2019-01-25T19:33:54.065Z,52.43
2019-01-25T19:36:57.489Z,57.20
2019-01-25T19:40:00.941Z,49.60
2019-01-25T19:43:05.801Z,53.13
2019-01-25T19:46:09.249Z,53.20
2019-01-25T19:49:12.721Z,54.73
2019-01-25T19:52:16.138Z,52.53
2019-01-25T19:55:24.795Z,50.20
2019-01-25T19:58:28.214Z,49.40
2019-01-25T20:01:31.660Z,52.37
2019-01-25T20:04:35.109Z,52.17
2019-01-25T20:07:38.538Z,47.53
2019-01-25T20:10:41.989Z,45.13
2019-01-25T20:13:45.412Z,41.50
2019-01-25T20:16:48.864Z,45.23
2019-01-25T20:19:52.282Z,44.73
2019-01-25T20:22:55.872Z,48.83
2019-01-25T20:25:59.312Z,49.70
2019-01-25T20:29:02.753Z,40.23
2019-01-25T20:32:06.213Z,44.73
2019-01-25T20:35:12.676Z,40.63
2019-01-25T20:38:16.140Z,41.10
2019-01-25T20:41:19.560Z,35.37
2019-01-25T20:44:23.092Z,43.63
2019-01-25T20:47:26.522Z,46.10
2019-01-25T20:50:31.916Z,41.73
2019-01-25T20:53:35.401Z,43.27
2019-01-25T20:56:38.872Z,38.60
2019-01-25T20:59:42.290Z,36.07
2019-01-25T21:02:45.928Z,43.67
2019-01-25T21:05:49.333Z,38.97
2019-01-25T21:08:52.792Z,38.67
2019-01-25T21:11:56.213Z,38.20
2019-01-25T21:14:59.674Z,44.90
2019-01-25T21:18:03.191Z,46.07
2019-01-25T21:21:06.627Z,45.03
2019-01-25T21:24:10.160Z,44.43
2019-01-25T21:27:13.665Z,41.97
2019-01-25T21:30:22.686Z,37.90
2019-01-25T21:33:26.792Z,40.53
2019-01-25T21:36:30.346Z,41.00
2019-01-25T21:39:33.765Z,35.80
2019-01-25T21:42:37.216Z,43.20
2019-01-25T21:45:43.161Z,40.43
2019-01-25T21:48:45.813Z,36.20
2019-01-25T21:51:49.250Z,38.30
2019-01-25T21:54:52.697Z,33.80
2019-01-25T21:57:56.125Z,34.80
2019-01-25T22:00:59.577Z,34.47
2019-01-25T22:04:03.006Z,32.90
2019-01-25T22:07:06.445Z,32.70
2019-01-25T22:10:15.593Z,30.80
2019-01-25T22:13:19.082Z,30.77
2019-01-25T22:16:22.504Z,30.13
2019-01-25T22:19:26.025Z,26.77
2019-01-25T22:22:29.441Z,30.63
2019-01-25T22:25:32.893Z,25.87
2019-01-25T22:28:36.321Z,29.47
2019-01-25T22:31:39.763Z,29.73
2019-01-25T22:34:44.874Z,28.50
2019-01-25T22:37:48.411Z,24.50
2019-01-25T22:40:51.870Z,25.30
2019-01-25T22:43:55.342Z,25.83
2019-01-25T22:46:58.877Z,24.50
2019-01-25T22:50:02.307Z,21.93
2019-01-25T22:53:05.880Z,24.50
2019-01-25T22:56:09.339Z,26.50
2019-01-25T22:59:12.761Z,24.00
2019-01-25T23:02:16.225Z,28.50
2019-01-25T23:05:28.612Z,20.90
2019-01-25T23:08:32.133Z,19.43
2019-01-25T23:11:35.589Z,21.03
2019-01-25T23:14:39.007Z,22.53
2019-01-25T23:17:42.445Z,22.13
2019-01-25T23:20:45.876Z,19.70
2019-01-25T23:23:49.321Z,19.10
2019-01-25T23:26:52.764Z,20.47
2019-01-25T23:29:56.180Z,20.53
2019-01-25T23:32:59.624Z,20.17
2019-01-25T23:36:03.100Z,18.97
2019-01-25T23:39:07.686Z,18.57
2019-01-25T23:42:11.120Z,20.10
2019-01-25T23:45:14.561Z,19.83
2019-01-25T23:48:17.996Z,19.10
2019-01-25T23:51:23.045Z,18.80
2019-01-25T23:54:26.644Z,18.80
2019-01-25T23:57:30.093Z,21.63
